WXM80 ListenWXM80 Stop

You find our weather info also at:

UK Metoffice

WeatherCloud

Weather Underground

Northeastern Weather Network

AWEKAS

Citizen Weather Observer Program (CWOP)

HAMweather, WeatherForYou, PWS Weather


Weather Underground History page Text

Daily Summary for May 24, 2017 Units:  Both    English   Metric
« Previous Day
Next Day »
Daily Weekly Monthly Yearly Custom
  High: Low: Average:
Temperature: 70.1 °F /  21.2 °C 55.9 °F /  13.3 °C 61.1 °F /  16.2 °C
Dew Point: 61.9 °F /  16.6 °C 51.1 °F /  10.6 °C 55.2 °F /  12.9 °C
Humidity: 95 % 61 % 82 %
Wind Speed: 6.0 mph /  9.7 km/h - 1 mph /  1.6 km/h
Wind Gust: 10.0 mph /  16.1 km/h - -
Wind:- - ENE
Pressure: 29.80 in /  1009 hPa 29.69 in /  1005.3 hPa -
Precipitation: 0.02 in /  0.51 mm    
Historical Graphs
 
 
Tabular Data for May 24, 2017
Time Temperature Dew Point Pressure Wind Wind Speed Wind Gust Humidity Rainfall Rate (Hourly)
00:02 59.0 °F /  15 °C 51.4 °F /  10.8 °C 29.75 in /  1007.3 hPa Calm     76 % 0.00 in /  0 mm
00:07 58.9 °F /  14.9 °C 51.3 °F /  10.7 °C 29.75 in /  1007.3 hPa Calm     76 % 0.00 in /  0 mm
00:12 58.8 °F /  14.9 °C 51.2 °F /  10.7 °C 29.75 in /  1007.3 hPa Calm     76 % 0.00 in /  0 mm
00:17 58.7 °F /  14.8 °C 51.2 °F /  10.7 °C 29.75 in /  1007.3 hPa Calm     76 % 0.00 in /  0 mm
00:22 58.6 °F /  14.8 °C 51.1 °F /  10.6 °C 29.75 in /  1007.3 hPa Calm     76 % 0.00 in /  0 mm
00:27 58.5 °F /  14.7 °C 51.7 °F /  10.9 °C 29.75 in /  1007.3 hPa Calm     78 % 0.00 in /  0 mm
00:32 58.4 °F /  14.7 °C 51.6 °F /  10.9 °C 29.75 in /  1007.3 hPa Calm     78 % 0.00 in /  0 mm
00:37 58.3 °F /  14.6 °C 51.8 °F /  11 °C 29.75 in /  1007.3 hPa Calm     79 % 0.00 in /  0 mm
00:42 58.2 °F /  14.6 °C 51.7 °F /  10.9 °C 29.75 in /  1007.3 hPa Calm     79 % 0.00 in /  0 mm
00:47 58.1 °F /  14.5 °C 51.6 °F /  10.9 °C 29.75 in /  1007.3 hPa Calm     79 % 0.00 in /  0 mm
00:52 58.0 °F /  14.4 °C 51.5 °F /  10.8 °C 29.74 in /  1007 hPa Calm     79 % 0.00 in /  0 mm
00:58 57.9 °F /  14.4 °C 51.8 °F /  11 °C 29.74 in /  1007 hPa Calm     80 % 0.00 in /  0 mm
01:03 57.8 °F /  14.3 °C 51.7 °F /  10.9 °C 29.74 in /  1007 hPa Calm     80 % 0.00 in /  0 mm
01:08 57.8 °F /  14.3 °C 51.7 °F /  10.9 °C 29.73 in /  1006.7 hPa Calm     80 % 0.00 in /  0 mm
01:13 57.7 °F /  14.3 °C 51.9 °F /  11.1 °C 29.73 in /  1006.7 hPa Calm     81 % 0.00 in /  0 mm
01:18 57.7 °F /  14.3 °C 51.9 °F /  11.1 °C 29.72 in /  1006.3 hPa Calm     81 % 0.00 in /  0 mm
01:23 57.6 °F /  14.2 °C 51.8 °F /  11 °C 29.72 in /  1006.3 hPa Calm     81 % 0.00 in /  0 mm
01:28 57.5 °F /  14.2 °C 51.7 °F /  10.9 °C 29.72 in /  1006.3 hPa Calm     81 % 0.00 in /  0 mm
01:33 57.5 °F /  14.2 °C 52.0 °F /  11.1 °C 29.72 in /  1006.3 hPa Calm     82 % 0.00 in /  0 mm
01:38 57.4 °F /  14.1 °C 51.9 °F /  11.1 °C 29.72 in /  1006.3 hPa Calm     82 % 0.00 in /  0 mm
01:43 57.3 °F /  14.1 °C 51.9 °F /  11.1 °C 29.72 in /  1006.3 hPa Calm     82 % 0.00 in /  0 mm
01:53 57.2 °F /  14 °C 52.1 °F /  11.2 °C 29.72 in /  1006.3 hPa Calm     83 % 0.00 in /  0 mm
01:58 57.2 °F /  14 °C 52.1 °F /  11.2 °C 29.72 in /  1006.3 hPa Calm     83 % 0.00 in /  0 mm
02:03 57.1 °F /  13.9 °C 52.3 °F /  11.3 °C 29.72 in /  1006.3 hPa Calm     84 % 0.00 in /  0 mm
02:08 57.1 °F /  13.9 °C 52.3 °F /  11.3 °C 29.72 in /  1006.3 hPa Calm     84 % 0.00 in /  0 mm
02:13 57.0 °F /  13.9 °C 52.2 °F /  11.2 °C 29.72 in /  1006.3 hPa Calm     84 % 0.00 in /  0 mm
02:18 57.0 °F /  13.9 °C 52.2 °F /  11.2 °C 29.72 in /  1006.3 hPa Calm     84 % 0.00 in /  0 mm
02:21 57.0 °F /  13.9 °C 52.2 °F /  11.2 °C 29.72 in /  1006.3 hPa Calm     84 % 0.00 in /  0 mm
02:26 56.9 °F /  13.8 °C 52.4 °F /  11.3 °C 29.72 in /  1006.3 hPa Calm     85 % 0.00 in /  0 mm
02:31 56.9 °F /  13.8 °C 52.4 °F /  11.3 °C 29.72 in /  1006.3 hPa Calm     85 % 0.00 in /  0 mm
02:36 56.9 °F /  13.8 °C 52.4 °F /  11.3 °C 29.72 in /  1006.3 hPa Calm     85 % 0.00 in /  0 mm
02:41 56.8 °F /  13.8 °C 52.3 °F /  11.3 °C 29.72 in /  1006.3 hPa Calm     85 % 0.00 in /  0 mm
02:46 56.8 °F /  13.8 °C 52.7 °F /  11.5 °C 29.72 in /  1006.3 hPa Calm     86 % 0.00 in /  0 mm
02:51 56.8 °F /  13.8 °C 52.7 °F /  11.5 °C 29.72 in /  1006.3 hPa Calm     86 % 0.00 in /  0 mm
02:56 56.8 °F /  13.8 °C 52.7 °F /  11.5 °C 29.72 in /  1006.3 hPa Calm     86 % 0.00 in /  0 mm
03:01 56.8 °F /  13.8 °C 53.0 °F /  11.7 °C 29.72 in /  1006.3 hPa Calm     87 % 0.00 in /  0 mm
03:02 56.8 °F /  13.8 °C 53.0 °F /  11.7 °C 29.72 in /  1006.3 hPa Calm     87 % 0.00 in /  0 mm
03:07 56.8 °F /  13.8 °C 53.0 °F /  11.7 °C 29.72 in /  1006.3 hPa Calm     87 % 0.00 in /  0 mm
03:12 56.8 °F /  13.8 °C 53.0 °F /  11.7 °C 29.72 in /  1006.3 hPa Calm     87 % 0.00 in /  0 mm
03:17 56.8 °F /  13.8 °C 53.0 °F /  11.7 °C 29.72 in /  1006.3 hPa Calm     87 % 0.00 in /  0 mm
03:22 56.8 °F /  13.8 °C 53.0 °F /  11.7 °C 29.72 in /  1006.3 hPa Calm     87 % 0.00 in /  0 mm
03:27 56.8 °F /  13.8 °C 53.0 °F /  11.7 °C 29.72 in /  1006.3 hPa Calm     87 % 0.00 in /  0 mm
03:32 56.8 °F /  13.8 °C 53.0 °F /  11.7 °C 29.72 in /  1006.3 hPa Calm     87 % 0.00 in /  0 mm
03:37 56.8 °F /  13.8 °C 52.7 °F /  11.5 °C 29.72 in /  1006.3 hPa Calm     86 % 0.00 in /  0 mm
03:42 56.8 °F /  13.8 °C 52.7 °F /  11.5 °C 29.72 in /  1006.3 hPa Calm     86 % 0.00 in /  0 mm
03:47 56.8 °F /  13.8 °C 52.7 °F /  11.5 °C 29.72 in /  1006.3 hPa Calm     86 % 0.00 in /  0 mm
03:52 56.8 °F /  13.8 °C 52.7 °F /  11.5 °C 29.72 in /  1006.3 hPa Calm     86 % 0.00 in /  0 mm
03:57 56.8 °F /  13.8 °C 52.7 °F /  11.5 °C 29.71 in /  1006 hPa Calm     86 % 0.00 in /  0 mm
04:02 56.8 °F /  13.8 °C 52.7 °F /  11.5 °C 29.72 in /  1006.3 hPa Calm     86 % 0.00 in /  0 mm
04:08 56.8 °F /  13.8 °C 52.7 °F /  11.5 °C 29.71 in /  1006 hPa Calm     86 % 0.00 in /  0 mm
04:13 56.9 °F /  13.8 °C 53.1 °F /  11.7 °C 29.71 in /  1006 hPa Calm     87 % 0.00 in /  0 mm
04:18 56.9 °F /  13.8 °C 53.1 °F /  11.7 °C 29.70 in /  1005.6 hPa Calm     87 % 0.00 in /  0 mm
04:23 56.9 °F /  13.8 °C 53.1 °F /  11.7 °C 29.70 in /  1005.6 hPa Calm     87 % 0.00 in /  0 mm
04:28 56.9 °F /  13.8 °C 53.1 °F /  11.7 °C 29.70 in /  1005.6 hPa Calm     87 % 0.00 in /  0 mm
04:33 56.8 °F /  13.8 °C 53.3 °F /  11.8 °C 29.70 in /  1005.6 hPa Calm     88 % 0.00 in /  0 mm
04:38 56.8 °F /  13.8 °C 53.3 °F /  11.8 °C 29.70 in /  1005.6 hPa Calm     88 % 0.00 in /  0 mm
04:43 56.8 °F /  13.8 °C 53.3 °F /  11.8 °C 29.70 in /  1005.6 hPa Calm     88 % 0.00 in /  0 mm
04:48 56.7 °F /  13.7 °C 53.2 °F /  11.8 °C 29.70 in /  1005.6 hPa Calm     88 % 0.00 in /  0 mm
04:53 56.7 °F /  13.7 °C 53.2 °F /  11.8 °C 29.70 in /  1005.6 hPa Calm     88 % 0.00 in /  0 mm
04:58 56.6 °F /  13.7 °C 53.1 °F /  11.7 °C 29.70 in /  1005.6 hPa Calm     88 % 0.00 in /  0 mm
05:03 56.6 °F /  13.7 °C 53.1 °F /  11.7 °C 29.70 in /  1005.6 hPa Calm     88 % 0.00 in /  0 mm
05:08 56.5 °F /  13.6 °C 53.3 °F /  11.8 °C 29.70 in /  1005.6 hPa Calm     89 % 0.00 in /  0 mm
05:14 56.4 °F /  13.6 °C 53.2 °F /  11.8 °C 29.71 in /  1006 hPa Calm     89 % 0.00 in /  0 mm
05:19 56.4 °F /  13.6 °C 53.2 °F /  11.8 °C 29.70 in /  1005.6 hPa Calm     89 % 0.00 in /  0 mm
05:24 56.4 °F /  13.6 °C 53.5 °F /  11.9 °C 29.69 in /  1005.3 hPa Calm     90 % 0.00 in /  0 mm
05:29 56.3 °F /  13.5 °C 53.4 °F /  11.9 °C 29.70 in /  1005.6 hPa Calm     90 % 0.00 in /  0 mm
05:34 56.2 °F /  13.4 °C 53.3 °F /  11.8 °C 29.70 in /  1005.6 hPa Calm     90 % 0.00 in /  0 mm
05:39 56.2 °F /  13.4 °C 53.6 °F /  12 °C 29.69 in /  1005.3 hPa Calm     91 % 0.00 in /  0 mm
05:44 56.2 °F /  13.4 °C 53.6 °F /  12 °C 29.69 in /  1005.3 hPa Calm     91 % 0.00 in /  0 mm
05:49 56.1 °F /  13.4 °C 53.5 °F /  11.9 °C 29.70 in /  1005.6 hPa Calm     91 % 0.01 in /  0.25 mm
05:54 56.0 °F /  13.3 °C 53.4 °F /  11.9 °C 29.69 in /  1005.3 hPa Calm     91 % 0.01 in /  0.25 mm
05:59 56.0 °F /  13.3 °C 53.7 °F /  12.1 °C 29.69 in /  1005.3 hPa Calm     92 % 0.01 in /  0.25 mm
06:04 56.0 °F /  13.3 °C 53.7 °F /  12.1 °C 29.69 in /  1005.3 hPa Calm     92 % 0.01 in /  0.25 mm
06:09 56.0 °F /  13.3 °C 53.7 °F /  12.1 °C 29.70 in /  1005.6 hPa Calm     92 % 0.01 in /  0.25 mm
06:14 56.0 °F /  13.3 °C 53.7 °F /  12.1 °C 29.69 in /  1005.3 hPa Calm     92 % 0.01 in /  0.25 mm
06:19 55.9 °F /  13.3 °C 53.6 °F /  12 °C 29.69 in /  1005.3 hPa Calm     92 % 0.01 in /  0.25 mm
06:24 55.9 °F /  13.3 °C 53.9 °F /  12.2 °C 29.69 in /  1005.3 hPa Calm     93 % 0.01 in /  0.25 mm
06:29 55.9 °F /  13.3 °C 53.9 °F /  12.2 °C 29.69 in /  1005.3 hPa NE 0.8 mph /  1.3 km/h 2.3 mph /  3.7 km/h 93 % 0.02 in /  0.51 mm
06:34 55.9 °F /  13.3 °C 53.9 °F /  12.2 °C 29.70 in /  1005.6 hPa Calm     93 % 0.02 in /  0.51 mm
06:39 55.9 °F /  13.3 °C 53.9 °F /  12.2 °C 29.70 in /  1005.6 hPa NE 0.7 mph /  1.1 km/h 2.3 mph /  3.7 km/h 93 % 0.02 in /  0.51 mm
06:44 56.0 °F /  13.3 °C 54.0 °F /  12.2 °C 29.70 in /  1005.6 hPa NE 0.2 mph /  0.3 km/h 2.3 mph /  3.7 km/h 93 % 0.02 in /  0.51 mm
06:49 56.1 °F /  13.4 °C 54.1 °F /  12.3 °C 29.71 in /  1006 hPa ENE 0.7 mph /  1.1 km/h 2.3 mph /  3.7 km/h 93 % 0.01 in /  0.25 mm
06:54 56.1 °F /  13.4 °C 54.1 °F /  12.3 °C 29.71 in /  1006 hPa Calm     93 % 0.01 in /  0.25 mm
06:59 56.2 °F /  13.4 °C 54.2 °F /  12.3 °C 29.71 in /  1006 hPa Calm   1.2 mph /  1.9 km/h 93 % 0.01 in /  0.25 mm
07:04 56.2 °F /  13.4 °C 54.2 °F /  12.3 °C 29.71 in /  1006 hPa Calm   1.2 mph /  1.9 km/h 93 % 0.01 in /  0.25 mm
07:09 56.3 °F /  13.5 °C 54.6 °F /  12.6 °C 29.72 in /  1006.3 hPa NNE 1.1 mph /  1.8 km/h 3.5 mph /  5.6 km/h 94 % 0.01 in /  0.25 mm
07:14 56.4 °F /  13.6 °C 54.7 °F /  12.6 °C 29.72 in /  1006.3 hPa NNE 0.8 mph /  1.3 km/h 1.2 mph /  1.9 km/h 94 % 0.01 in /  0.25 mm
07:19 56.6 °F /  13.7 °C 54.9 °F /  12.7 °C 29.71 in /  1006 hPa Calm   1.2 mph /  1.9 km/h 94 % 0.01 in /  0.25 mm
07:24 56.7 °F /  13.7 °C 55.0 °F /  12.8 °C 29.71 in /  1006 hPa NNE 0.6 mph /  1 km/h 2.3 mph /  3.7 km/h 94 % 0.01 in /  0.25 mm
07:29 56.8 °F /  13.8 °C 55.1 °F /  12.8 °C 29.71 in /  1006 hPa NNE 0.6 mph /  1 km/h 2.3 mph /  3.7 km/h 94 % 0.00 in /  0 mm
07:34 56.9 °F /  13.8 °C 55.5 °F /  13.1 °C 29.71 in /  1006 hPa NNE 0.9 mph /  1.4 km/h 2.3 mph /  3.7 km/h 95 % 0.00 in /  0 mm
07:39 57.1 °F /  13.9 °C 55.7 °F /  13.2 °C 29.71 in /  1006 hPa NE 2.2 mph /  3.5 km/h 4.6 mph /  7.4 km/h 95 % 0.00 in /  0 mm
07:44 57.3 °F /  14.1 °C 55.9 °F /  13.3 °C 29.71 in /  1006 hPa NE 1.2 mph /  1.9 km/h 3.5 mph /  5.6 km/h 95 % 0.00 in /  0 mm
07:49 57.4 °F /  14.1 °C 56.0 °F /  13.3 °C 29.71 in /  1006 hPa ENE 0.2 mph /  0.3 km/h 1.2 mph /  1.9 km/h 95 % 0.00 in /  0 mm
07:54 57.5 °F /  14.2 °C 56.1 °F /  13.4 °C 29.70 in /  1005.6 hPa ENE 2.4 mph /  3.9 km/h 4.0 mph /  6.4 km/h 95 % 0.00 in /  0 mm
07:59 57.7 °F /  14.3 °C 56.3 °F /  13.5 °C 29.70 in /  1005.6 hPa ENE 2.2 mph /  3.5 km/h 4.6 mph /  7.4 km/h 95 % 0.00 in /  0 mm
08:04 57.9 °F /  14.4 °C 56.2 °F /  13.4 °C 29.70 in /  1005.6 hPa NE 0.9 mph /  1.4 km/h 3.5 mph /  5.6 km/h 94 % 0.00 in /  0 mm
08:09 58.2 °F /  14.6 °C 56.8 °F /  13.8 °C 29.71 in /  1006 hPa North 0.4 mph /  0.6 km/h 2.3 mph /  3.7 km/h 95 % 0.00 in /  0 mm
08:14 58.5 °F /  14.7 °C 57.1 °F /  13.9 °C 29.71 in /  1006 hPa ENE 2.1 mph /  3.4 km/h 4.6 mph /  7.4 km/h 95 % 0.00 in /  0 mm
08:19 58.6 °F /  14.8 °C 56.9 °F /  13.8 °C 29.71 in /  1006 hPa ENE 0.8 mph /  1.3 km/h 2.3 mph /  3.7 km/h 94 % 0.00 in /  0 mm
08:24 58.7 °F /  14.8 °C 57.0 °F /  13.9 °C 29.71 in /  1006 hPa NE 0.3 mph /  0.5 km/h 2.3 mph /  3.7 km/h 94 % 0.00 in /  0 mm
08:29 59.0 °F /  15 °C 57.3 °F /  14.1 °C 29.71 in /  1006 hPa North 1.2 mph /  1.9 km/h 3.5 mph /  5.6 km/h 94 % 0.00 in /  0 mm
08:35 59.3 °F /  15.2 °C 57.6 °F /  14.2 °C 29.71 in /  1006 hPa ENE 3.0 mph /  4.8 km/h 3.5 mph /  5.6 km/h 94 % 0.00 in /  0 mm
08:40 59.5 °F /  15.3 °C 57.8 °F /  14.3 °C 29.71 in /  1006 hPa ENE 1.0 mph /  1.6 km/h 4.0 mph /  6.4 km/h 94 % 0.00 in /  0 mm
08:45 59.8 °F /  15.4 °C 58.1 °F /  14.5 °C 29.71 in /  1006 hPa NNE 2.1 mph /  3.4 km/h 3.5 mph /  5.6 km/h 94 % 0.00 in /  0 mm
08:50 60.0 °F /  15.6 °C 58.3 °F /  14.6 °C 29.71 in /  1006 hPa NNE 1.7 mph /  2.7 km/h 3.5 mph /  5.6 km/h 94 % 0.00 in /  0 mm
08:55 60.1 °F /  15.6 °C 58.4 °F /  14.7 °C 29.71 in /  1006 hPa NE 2.3 mph /  3.7 km/h 4.0 mph /  6.4 km/h 94 % 0.00 in /  0 mm
09:00 60.2 °F /  15.7 °C 58.2 °F /  14.6 °C 29.71 in /  1006 hPa NNE 3.5 mph /  5.6 km/h 6.0 mph /  9.7 km/h 93 % 0.00 in /  0 mm
09:05 60.2 °F /  15.7 °C 57.9 °F /  14.4 °C 29.71 in /  1006 hPa NNE 4.1 mph /  6.6 km/h 6.9 mph /  11.1 km/h 92 % 0.00 in /  0 mm
09:10 60.2 °F /  15.7 °C 57.9 °F /  14.4 °C 29.71 in /  1006 hPa NNE 1.7 mph /  2.7 km/h 4.6 mph /  7.4 km/h 92 % 0.00 in /  0 mm
09:15 60.3 °F /  15.7 °C 58.3 °F /  14.6 °C 29.72 in /  1006.3 hPa NE 1.2 mph /  1.9 km/h 3.5 mph /  5.6 km/h 93 % 0.00 in /  0 mm
09:20 60.4 °F /  15.8 °C 58.1 °F /  14.5 °C 29.72 in /  1006.3 hPa NE 2.4 mph /  3.9 km/h 3.5 mph /  5.6 km/h 92 % 0.00 in /  0 mm
09:25 60.7 °F /  15.9 °C 58.4 °F /  14.7 °C 29.72 in /  1006.3 hPa ENE 2.4 mph /  3.9 km/h 4.0 mph /  6.4 km/h 92 % 0.00 in /  0 mm
09:30 61.0 °F /  16.1 °C 58.7 °F /  14.8 °C 29.72 in /  1006.3 hPa ENE 2.1 mph /  3.4 km/h 4.6 mph /  7.4 km/h 92 % 0.00 in /  0 mm
09:35 61.2 °F /  16.2 °C 58.9 °F /  14.9 °C 29.72 in /  1006.3 hPa NE 2.5 mph /  4 km/h 5.8 mph /  9.3 km/h 92 % 0.00 in /  0 mm
09:40 61.5 °F /  16.4 °C 58.8 °F /  14.9 °C 29.72 in /  1006.3 hPa NE 2.3 mph /  3.7 km/h 3.5 mph /  5.6 km/h 91 % 0.00 in /  0 mm
09:45 61.8 °F /  16.6 °C 58.8 °F /  14.9 °C 29.73 in /  1006.7 hPa NNE 1.8 mph /  2.9 km/h 3.5 mph /  5.6 km/h 90 % 0.00 in /  0 mm
09:50 62.0 °F /  16.7 °C 58.7 °F /  14.8 °C 29.73 in /  1006.7 hPa ENE 2.8 mph /  4.5 km/h 4.6 mph /  7.4 km/h 89 % 0.00 in /  0 mm
09:55 62.2 °F /  16.8 °C 58.6 °F /  14.8 °C 29.72 in /  1006.3 hPa North 1.6 mph /  2.6 km/h 3.5 mph /  5.6 km/h 88 % 0.00 in /  0 mm
10:00 62.3 °F /  16.8 °C 58.4 °F /  14.7 °C 29.73 in /  1006.7 hPa NNE 1.3 mph /  2.1 km/h 3.5 mph /  5.6 km/h 87 % 0.00 in /  0 mm
10:03 62.4 °F /  16.9 °C 58.5 °F /  14.7 °C 29.73 in /  1006.7 hPa NNE 1.6 mph /  2.6 km/h 3.5 mph /  5.6 km/h 87 % 0.00 in /  0 mm
10:08 62.5 °F /  16.9 °C 58.3 °F /  14.6 °C 29.72 in /  1006.3 hPa NE 1.3 mph /  2.1 km/h 3.5 mph /  5.6 km/h 86 % 0.00 in /  0 mm
10:13 62.4 °F /  16.9 °C 57.5 °F /  14.2 °C 29.72 in /  1006.3 hPa ENE 2.6 mph /  4.2 km/h 5.8 mph /  9.3 km/h 84 % 0.00 in /  0 mm
10:18 62.3 °F /  16.8 °C 57.4 °F /  14.1 °C 29.72 in /  1006.3 hPa ENE 3.8 mph /  6.1 km/h 6.9 mph /  11.1 km/h 84 % 0.00 in /  0 mm
10:23 62.1 °F /  16.7 °C 56.5 °F /  13.6 °C 29.73 in /  1006.7 hPa NE 2.4 mph /  3.9 km/h 6.9 mph /  11.1 km/h 82 % 0.00 in /  0 mm
10:28 61.9 °F /  16.6 °C 56.7 °F /  13.7 °C 29.73 in /  1006.7 hPa East 0.6 mph /  1 km/h 3.5 mph /  5.6 km/h 83 % 0.00 in /  0 mm
10:34 61.8 °F /  16.6 °C 56.6 °F /  13.7 °C 29.72 in /  1006.3 hPa ENE 2.4 mph /  3.9 km/h 3.5 mph /  5.6 km/h 83 % 0.00 in /  0 mm
10:39 61.7 °F /  16.5 °C 56.1 °F /  13.4 °C 29.73 in /  1006.7 hPa ENE 0.8 mph /  1.3 km/h 2.3 mph /  3.7 km/h 82 % 0.00 in /  0 mm
10:43 61.5 °F /  16.4 °C 56.0 °F /  13.3 °C 29.73 in /  1006.7 hPa NE 1.4 mph /  2.3 km/h 3.5 mph /  5.6 km/h 82 % 0.00 in /  0 mm
10:49 61.6 °F /  16.4 °C 56.4 °F /  13.6 °C 29.73 in /  1006.7 hPa ENE 0.5 mph /  0.8 km/h 1.2 mph /  1.9 km/h 83 % 0.00 in /  0 mm
10:53 61.8 °F /  16.6 °C 56.9 °F /  13.8 °C 29.73 in /  1006.7 hPa ENE 0.3 mph /  0.5 km/h 1.2 mph /  1.9 km/h 84 % 0.00 in /  0 mm
10:59 62.2 °F /  16.8 °C 57.3 °F /  14.1 °C 29.73 in /  1006.7 hPa ENE 0.4 mph /  0.6 km/h 3.0 mph /  4.8 km/h 84 % 0.00 in /  0 mm
11:04 62.5 °F /  16.9 °C 57.6 °F /  14.2 °C 29.73 in /  1006.7 hPa NE 0.2 mph /  0.3 km/h 1.2 mph /  1.9 km/h 84 % 0.00 in /  0 mm
11:09 62.7 °F /  17.1 °C 57.8 °F /  14.3 °C 29.73 in /  1006.7 hPa NE 0.2 mph /  0.3 km/h 1.2 mph /  1.9 km/h 84 % 0.00 in /  0 mm
11:14 62.8 °F /  17.1 °C 57.9 °F /  14.4 °C 29.73 in /  1006.7 hPa NE 0.1 mph /  0.2 km/h 1.2 mph /  1.9 km/h 84 % 0.00 in /  0 mm
11:19 63.0 °F /  17.2 °C 57.8 °F /  14.3 °C 29.74 in /  1007 hPa NE 0.8 mph /  1.3 km/h 2.0 mph /  3.2 km/h 83 % 0.00 in /  0 mm
11:24 63.0 °F /  17.2 °C 57.8 °F /  14.3 °C 29.74 in /  1007 hPa Calm   1.2 mph /  1.9 km/h 83 % 0.00 in /  0 mm
11:29 63.1 °F /  17.3 °C 58.2 °F /  14.6 °C 29.74 in /  1007 hPa Calm   1.2 mph /  1.9 km/h 84 % 0.00 in /  0 mm
11:34 63.2 °F /  17.3 °C 57.9 °F /  14.4 °C 29.75 in /  1007.3 hPa NE 1.2 mph /  1.9 km/h 2.3 mph /  3.7 km/h 83 % 0.00 in /  0 mm
11:39 63.0 °F /  17.2 °C 57.4 °F /  14.1 °C 29.75 in /  1007.3 hPa Calm   1.2 mph /  1.9 km/h 82 % 0.00 in /  0 mm
11:44 63.1 °F /  17.3 °C 57.9 °F /  14.4 °C 29.75 in /  1007.3 hPa Calm   2.3 mph /  3.7 km/h 83 % 0.00 in /  0 mm
11:49 63.3 °F /  17.4 °C 58.7 °F /  14.8 °C 29.75 in /  1007.3 hPa Calm     85 % 0.00 in /  0 mm
11:54 63.6 °F /  17.6 °C 58.7 °F /  14.8 °C 29.75 in /  1007.3 hPa NE 0.2 mph /  0.3 km/h 2.3 mph /  3.7 km/h 84 % 0.00 in /  0 mm
11:59 64.0 °F /  17.8 °C 58.7 °F /  14.8 °C 29.75 in /  1007.3 hPa Calm     83 % 0.00 in /  0 mm
12:05 64.6 °F /  18.1 °C 60.3 °F /  15.7 °C 29.74 in /  1007 hPa Calm   1.2 mph /  1.9 km/h 86 % 0.00 in /  0 mm
12:10 65.7 °F /  18.7 °C 60.4 °F /  15.8 °C 29.74 in /  1007 hPa NE 0.4 mph /  0.6 km/h 1.2 mph /  1.9 km/h 83 % 0.00 in /  0 mm
12:15 66.9 °F /  19.4 °C 60.5 °F /  15.8 °C 29.73 in /  1006.7 hPa NE 1.3 mph /  2.1 km/h 2.3 mph /  3.7 km/h 80 % 0.00 in /  0 mm
12:20 67.9 °F /  19.9 °C 60.8 °F /  16 °C 29.73 in /  1006.7 hPa NE 1.2 mph /  1.9 km/h 2.3 mph /  3.7 km/h 78 % 0.00 in /  0 mm
12:25 69.0 °F /  20.6 °C 61.9 °F /  16.6 °C 29.73 in /  1006.7 hPa ENE 1.3 mph /  2.1 km/h 2.3 mph /  3.7 km/h 78 % 0.00 in /  0 mm
12:30 69.7 °F /  20.9 °C 61.0 °F /  16.1 °C 29.73 in /  1006.7 hPa East 1.3 mph /  2.1 km/h 3.5 mph /  5.6 km/h 74 % 0.00 in /  0 mm
12:35 70.1 °F /  21.2 °C 61.4 °F /  16.3 °C 29.73 in /  1006.7 hPa East 1.2 mph /  1.9 km/h 2.3 mph /  3.7 km/h 74 % 0.00 in /  0 mm
12:40 69.8 °F /  21 °C 60.8 °F /  16 °C 29.74 in /  1007 hPa ENE 0.7 mph /  1.1 km/h 1.2 mph /  1.9 km/h 73 % 0.00 in /  0 mm
12:45 69.7 °F /  20.9 °C 61.0 °F /  16.1 °C 29.74 in /  1007 hPa ENE 0.8 mph /  1.3 km/h 2.3 mph /  3.7 km/h 74 % 0.00 in /  0 mm
12:50 69.2 °F /  20.7 °C 59.0 °F /  15 °C 29.74 in /  1007 hPa ENE 5.5 mph /  8.9 km/h 9.2 mph /  14.8 km/h 70 % 0.00 in /  0 mm
12:55 68.2 °F /  20.1 °C 58.4 °F /  14.7 °C 29.74 in /  1007 hPa ENE 4.2 mph /  6.8 km/h 8.1 mph /  13 km/h 71 % 0.00 in /  0 mm
13:00 68.0 °F /  20 °C 59.8 °F /  15.4 °C 29.74 in /  1007 hPa East 1.0 mph /  1.6 km/h 2.3 mph /  3.7 km/h 75 % 0.00 in /  0 mm
13:05 68.1 °F /  20.1 °C 58.7 °F /  14.8 °C 29.74 in /  1007 hPa ENE 2.5 mph /  4 km/h 3.5 mph /  5.6 km/h 72 % 0.00 in /  0 mm
13:10 67.8 °F /  19.9 °C 58.4 °F /  14.7 °C 29.74 in /  1007 hPa ENE 1.6 mph /  2.6 km/h 3.5 mph /  5.6 km/h 72 % 0.00 in /  0 mm
13:15 67.4 °F /  19.7 °C 58.8 °F /  14.9 °C 29.74 in /  1007 hPa ENE 1.6 mph /  2.6 km/h 3.5 mph /  5.6 km/h 74 % 0.00 in /  0 mm
13:20 67.7 °F /  19.8 °C 59.5 °F /  15.3 °C 29.74 in /  1007 hPa East 2.2 mph /  3.5 km/h 3.5 mph /  5.6 km/h 75 % 0.00 in /  0 mm
13:25 67.7 °F /  19.8 °C 58.0 °F /  14.4 °C 29.74 in /  1007 hPa ENE 2.6 mph /  4.2 km/h 4.6 mph /  7.4 km/h 71 % 0.00 in /  0 mm
13:30 67.9 °F /  19.9 °C 58.9 °F /  14.9 °C 29.73 in /  1006.7 hPa ENE 2.5 mph /  4 km/h 3.5 mph /  5.6 km/h 73 % 0.00 in /  0 mm
13:35 68.2 °F /  20.1 °C 58.8 °F /  14.9 °C 29.73 in /  1006.7 hPa ENE 2.3 mph /  3.7 km/h 3.5 mph /  5.6 km/h 72 % 0.00 in /  0 mm
13:40 68.2 °F /  20.1 °C 59.2 °F /  15.1 °C 29.73 in /  1006.7 hPa East 2.6 mph /  4.2 km/h 3.5 mph /  5.6 km/h 73 % 0.00 in /  0 mm
13:45 68.0 °F /  20 °C 59.0 °F /  15 °C 29.73 in /  1006.7 hPa East 2.6 mph /  4.2 km/h 5.0 mph /  8 km/h 73 % 0.00 in /  0 mm
13:50 68.0 °F /  20 °C 59.4 °F /  15.2 °C 29.72 in /  1006.3 hPa ENE 2.2 mph /  3.5 km/h 3.5 mph /  5.6 km/h 74 % 0.00 in /  0 mm
13:55 68.3 °F /  20.2 °C 59.3 °F /  15.2 °C 29.72 in /  1006.3 hPa ENE 2.2 mph /  3.5 km/h 3.5 mph /  5.6 km/h 73 % 0.00 in /  0 mm
14:00 68.4 °F /  20.2 °C 59.4 °F /  15.2 °C 29.72 in /  1006.3 hPa East 2.1 mph /  3.4 km/h 3.5 mph /  5.6 km/h 73 % 0.00 in /  0 mm
14:05 68.5 °F /  20.3 °C 59.1 °F /  15.1 °C 29.72 in /  1006.3 hPa East 1.9 mph /  3.1 km/h 3.5 mph /  5.6 km/h 72 % 0.00 in /  0 mm
14:10 68.7 °F /  20.4 °C 58.1 °F /  14.5 °C 29.72 in /  1006.3 hPa ENE 2.2 mph /  3.5 km/h 3.5 mph /  5.6 km/h 69 % 0.00 in /  0 mm
14:15 68.2 °F /  20.1 °C 56.8 °F /  13.8 °C 29.72 in /  1006.3 hPa ENE 1.7 mph /  2.7 km/h 3.5 mph /  5.6 km/h 67 % 0.00 in /  0 mm
14:20 67.8 °F /  19.9 °C 57.3 °F /  14.1 °C 29.72 in /  1006.3 hPa ENE 1.3 mph /  2.1 km/h 3.5 mph /  5.6 km/h 69 % 0.00 in /  0 mm
14:25 67.6 °F /  19.8 °C 56.7 °F /  13.7 °C 29.72 in /  1006.3 hPa ENE 1.2 mph /  1.9 km/h 3.5 mph /  5.6 km/h 68 % 0.00 in /  0 mm
14:30 67.6 °F /  19.8 °C 56.2 °F /  13.4 °C 29.72 in /  1006.3 hPa ENE 1.9 mph /  3.1 km/h 3.5 mph /  5.6 km/h 67 % 0.00 in /  0 mm
14:35 67.7 °F /  19.8 °C 55.9 °F /  13.3 °C 29.73 in /  1006.7 hPa ENE 2.0 mph /  3.2 km/h 3.5 mph /  5.6 km/h 66 % 0.00 in /  0 mm
14:40 67.8 °F /  19.9 °C 56.4 °F /  13.6 °C 29.72 in /  1006.3 hPa ENE 1.7 mph /  2.7 km/h 3.5 mph /  5.6 km/h 67 % 0.00 in /  0 mm
14:45 67.9 °F /  19.9 °C 56.9 °F /  13.8 °C 29.72 in /  1006.3 hPa East 1.7 mph /  2.7 km/h 3.5 mph /  5.6 km/h 68 % 0.00 in /  0 mm
14:50 67.7 °F /  19.8 °C 55.5 °F /  13.1 °C 29.72 in /  1006.3 hPa ENE 3.0 mph /  4.8 km/h 4.0 mph /  6.4 km/h 65 % 0.00 in /  0 mm
14:55 67.8 °F /  19.9 °C 57.3 °F /  14.1 °C 29.72 in /  1006.3 hPa East 1.7 mph /  2.7 km/h 3.0 mph /  4.8 km/h 69 % 0.00 in /  0 mm
15:00 68.0 °F /  20 °C 57.4 °F /  14.1 °C 29.71 in /  1006 hPa ENE 1.8 mph /  2.9 km/h 3.0 mph /  4.8 km/h 69 % 0.00 in /  0 mm
15:06 68.0 °F /  20 °C 56.2 °F /  13.4 °C 29.72 in /  1006.3 hPa ENE 1.4 mph /  2.3 km/h 3.5 mph /  5.6 km/h 66 % 0.00 in /  0 mm
15:10 68.0 °F /  20 °C 56.6 °F /  13.7 °C 29.73 in /  1006.7 hPa ENE 1.6 mph /  2.6 km/h 4.0 mph /  6.4 km/h 67 % 0.00 in /  0 mm
15:16 67.8 °F /  19.9 °C 56.5 °F /  13.6 °C 29.73 in /  1006.7 hPa ENE 3.0 mph /  4.8 km/h 10.0 mph /  16.1 km/h 67 % 0.00 in /  0 mm
15:21 67.6 °F /  19.8 °C 56.2 °F /  13.4 °C 29.73 in /  1006.7 hPa ENE 3.0 mph /  4.8 km/h 8.0 mph /  12.9 km/h 67 % 0.00 in /  0 mm
15:26 67.2 °F /  19.6 °C 56.7 °F /  13.7 °C 29.74 in /  1007 hPa ENE 3.0 mph /  4.8 km/h 9.0 mph /  14.5 km/h 69 % 0.00 in /  0 mm
15:31 67.1 °F /  19.5 °C 56.6 °F /  13.7 °C 29.74 in /  1007 hPa ENE 2.0 mph /  3.2 km/h 7.0 mph /  11.3 km/h 69 % 0.00 in /  0 mm
15:36 67.0 °F /  19.4 °C 56.1 °F /  13.4 °C 29.75 in /  1007.3 hPa ENE 2.0 mph /  3.2 km/h 8.0 mph /  12.9 km/h 68 % 0.00 in /  0 mm
15:41 66.9 °F /  19.4 °C 56.4 °F /  13.6 °C 29.75 in /  1007.3 hPa ENE 2.0 mph /  3.2 km/h 4.0 mph /  6.4 km/h 69 % 0.00 in /  0 mm
15:46 66.7 °F /  19.3 °C 56.2 °F /  13.4 °C 29.74 in /  1007 hPa ENE 3.0 mph /  4.8 km/h 9.0 mph /  14.5 km/h 69 % 0.00 in /  0 mm
15:51 66.6 °F /  19.2 °C 57.3 °F /  14.1 °C 29.74 in /  1007 hPa ENE 3.1 mph /  5 km/h 6.9 mph /  11.1 km/h 72 % 0.00 in /  0 mm
15:56 66.5 °F /  19.2 °C 56.8 °F /  13.8 °C 29.74 in /  1007 hPa ENE 6.0 mph /  9.7 km/h 10.0 mph /  16.1 km/h 71 % 0.00 in /  0 mm
16:01 66.4 °F /  19.1 °C 57.5 °F /  14.2 °C 29.75 in /  1007.3 hPa ENE 3.7 mph /  6 km/h 4.0 mph /  6.4 km/h 73 % 0.00 in /  0 mm
16:06 66.2 °F /  19 °C 57.3 °F /  14.1 °C 29.75 in /  1007.3 hPa NE 2.1 mph /  3.4 km/h 4.6 mph /  7.4 km/h 73 % 0.00 in /  0 mm
16:11 65.9 °F /  18.8 °C 57.0 °F /  13.9 °C 29.75 in /  1007.3 hPa NE 4.1 mph /  6.6 km/h 6.9 mph /  11.1 km/h 73 % 0.00 in /  0 mm
16:16 65.5 °F /  18.6 °C 57.0 °F /  13.9 °C 29.75 in /  1007.3 hPa ENE 2.6 mph /  4.2 km/h 4.6 mph /  7.4 km/h 74 % 0.00 in /  0 mm
16:21 65.5 °F /  18.6 °C 57.4 °F /  14.1 °C 29.74 in /  1007 hPa East 4.6 mph /  7.4 km/h 6.9 mph /  11.1 km/h 75 % 0.00 in /  0 mm
16:26 65.3 °F /  18.5 °C 56.8 °F /  13.8 °C 29.74 in /  1007 hPa ENE 4.9 mph /  7.9 km/h 8.1 mph /  13 km/h 74 % 0.00 in /  0 mm
16:31 65.3 °F /  18.5 °C 57.5 °F /  14.2 °C 29.73 in /  1006.7 hPa ENE 5.0 mph /  8 km/h 9.2 mph /  14.8 km/h 76 % 0.00 in /  0 mm
16:36 65.4 °F /  18.6 °C 56.5 °F /  13.6 °C 29.72 in /  1006.3 hPa NE 4.4 mph /  7.1 km/h 8.1 mph /  13 km/h 73 % 0.00 in /  0 mm
16:41 65.5 °F /  18.6 °C 56.6 °F /  13.7 °C 29.73 in /  1006.7 hPa East 1.7 mph /  2.7 km/h 6.9 mph /  11.1 km/h 73 % 0.00 in /  0 mm
16:46 65.9 °F /  18.8 °C 56.6 °F /  13.7 °C 29.74 in /  1007 hPa East 0.8 mph /  1.3 km/h 2.3 mph /  3.7 km/h 72 % 0.00 in /  0 mm
16:51 66.5 °F /  19.2 °C 56.4 °F /  13.6 °C 29.75 in /  1007.3 hPa East 1.3 mph /  2.1 km/h 3.5 mph /  5.6 km/h 70 % 0.00 in /  0 mm
16:56 66.8 °F /  19.3 °C 55.9 °F /  13.3 °C 29.75 in /  1007.3 hPa NE 1.8 mph /  2.9 km/h 3.5 mph /  5.6 km/h 68 % 0.00 in /  0 mm
17:01 67.3 °F /  19.6 °C 56.0 °F /  13.3 °C 29.75 in /  1007.3 hPa East 2.3 mph /  3.7 km/h 3.5 mph /  5.6 km/h 67 % 0.00 in /  0 mm
17:06 67.4 °F /  19.7 °C 55.2 °F /  12.9 °C 29.75 in /  1007.3 hPa East 2.1 mph /  3.4 km/h 4.6 mph /  7.4 km/h 65 % 0.00 in /  0 mm
17:11 67.4 °F /  19.7 °C 55.6 °F /  13.1 °C 29.74 in /  1007 hPa East 2.0 mph /  3.2 km/h 3.5 mph /  5.6 km/h 66 % 0.00 in /  0 mm
17:16 67.2 °F /  19.6 °C 54.2 °F /  12.3 °C 29.74 in /  1007 hPa ESE 2.2 mph /  3.5 km/h 4.6 mph /  7.4 km/h 63 % 0.00 in /  0 mm
17:22 67.2 °F /  19.6 °C 53.3 °F /  11.8 °C 29.74 in /  1007 hPa East 1.6 mph /  2.6 km/h 3.5 mph /  5.6 km/h 61 % 0.00 in /  0 mm
17:27 67.1 °F /  19.5 °C 54.1 °F /  12.3 °C 29.74 in /  1007 hPa East 4.6 mph /  7.4 km/h 6.9 mph /  11.1 km/h 63 % 0.00 in /  0 mm
17:32 66.9 °F /  19.4 °C 54.3 °F /  12.4 °C 29.74 in /  1007 hPa East 1.6 mph /  2.6 km/h 3.5 mph /  5.6 km/h 64 % 0.00 in /  0 mm
17:37 66.8 °F /  19.3 °C 55.5 °F /  13.1 °C 29.74 in /  1007 hPa East 2.2 mph /  3.5 km/h 3.5 mph /  5.6 km/h 67 % 0.00 in /  0 mm
17:42 66.6 °F /  19.2 °C 54.5 °F /  12.5 °C 29.74 in /  1007 hPa East 1.6 mph /  2.6 km/h 3.5 mph /  5.6 km/h 65 % 0.00 in /  0 mm
17:47 66.4 °F /  19.1 °C 54.3 °F /  12.4 °C 29.74 in /  1007 hPa East 1.2 mph /  1.9 km/h 2.3 mph /  3.7 km/h 65 % 0.00 in /  0 mm
17:52 66.3 °F /  19.1 °C 55.0 °F /  12.8 °C 29.74 in /  1007 hPa East 0.9 mph /  1.4 km/h 2.3 mph /  3.7 km/h 67 % 0.00 in /  0 mm
17:57 66.2 °F /  19 °C 55.7 °F /  13.2 °C 29.73 in /  1006.7 hPa East 1.1 mph /  1.8 km/h 2.3 mph /  3.7 km/h 69 % 0.00 in /  0 mm
18:02 66.2 °F /  19 °C 55.7 °F /  13.2 °C 29.72 in /  1006.3 hPa ENE 1.9 mph /  3.1 km/h 3.5 mph /  5.6 km/h 69 % 0.00 in /  0 mm
18:07 66.3 °F /  19.1 °C 56.2 °F /  13.4 °C 29.73 in /  1006.7 hPa ENE 0.7 mph /  1.1 km/h 2.3 mph /  3.7 km/h 70 % 0.00 in /  0 mm
18:12 66.3 °F /  19.1 °C 54.6 °F /  12.6 °C 29.73 in /  1006.7 hPa East 1.0 mph /  1.6 km/h 2.3 mph /  3.7 km/h 66 % 0.00 in /  0 mm
18:17 66.3 °F /  19.1 °C 54.6 °F /  12.6 °C 29.73 in /  1006.7 hPa ENE 2.6 mph /  4.2 km/h 3.5 mph /  5.6 km/h 66 % 0.00 in /  0 mm
18:22 66.1 °F /  18.9 °C 56.0 °F /  13.3 °C 29.73 in /  1006.7 hPa ENE 3.5 mph /  5.6 km/h 5.8 mph /  9.3 km/h 70 % 0.00 in /  0 mm
18:27 65.7 °F /  18.7 °C 55.6 °F /  13.1 °C 29.74 in /  1007 hPa NE 4.4 mph /  7.1 km/h 6.9 mph /  11.1 km/h 70 % 0.00 in /  0 mm
18:32 65.3 °F /  18.5 °C 55.7 °F /  13.2 °C 29.74 in /  1007 hPa ENE 1.8 mph /  2.9 km/h 5.8 mph /  9.3 km/h 71 % 0.00 in /  0 mm
18:37 64.9 °F /  18.3 °C 56.0 °F /  13.3 °C 29.74 in /  1007 hPa ENE 5.0 mph /  8 km/h 8.0 mph /  12.9 km/h 73 % 0.00 in /  0 mm
18:42 64.3 °F /  17.9 °C 55.8 °F /  13.2 °C 29.75 in /  1007.3 hPa ENE 2.2 mph /  3.5 km/h 3.5 mph /  5.6 km/h 74 % 0.00 in /  0 mm
18:47 64.0 °F /  17.8 °C 55.5 °F /  13.1 °C 29.75 in /  1007.3 hPa Calm   2.3 mph /  3.7 km/h 74 % 0.00 in /  0 mm
18:52 63.9 °F /  17.7 °C 56.2 °F /  13.4 °C 29.75 in /  1007.3 hPa Calm     76 % 0.00 in /  0 mm
18:57 63.8 °F /  17.7 °C 56.1 °F /  13.4 °C 29.75 in /  1007.3 hPa NE 0.3 mph /  0.5 km/h 2.3 mph /  3.7 km/h 76 % 0.00 in /  0 mm
19:02 63.6 °F /  17.6 °C 55.9 °F /  13.3 °C 29.75 in /  1007.3 hPa East 0.2 mph /  0.3 km/h 1.2 mph /  1.9 km/h 76 % 0.00 in /  0 mm
19:07 63.3 °F /  17.4 °C 56.0 °F /  13.3 °C 29.75 in /  1007.3 hPa East 0.2 mph /  0.3 km/h 1.2 mph /  1.9 km/h 77 % 0.00 in /  0 mm
19:12 63.1 °F /  17.3 °C 56.1 °F /  13.4 °C 29.75 in /  1007.3 hPa ENE 1.0 mph /  1.6 km/h 3.0 mph /  4.8 km/h 78 % 0.00 in /  0 mm
19:17 62.8 °F /  17.1 °C 56.2 °F /  13.4 °C 29.75 in /  1007.3 hPa ENE 0.1 mph /  0.2 km/h 1.2 mph /  1.9 km/h 79 % 0.00 in /  0 mm
19:23 62.6 °F /  17 °C 56.3 °F /  13.5 °C 29.75 in /  1007.3 hPa Calm   1.2 mph /  1.9 km/h 80 % 0.00 in /  0 mm
19:28 62.4 °F /  16.9 °C 56.1 °F /  13.4 °C 29.75 in /  1007.3 hPa Calm   1.2 mph /  1.9 km/h 80 % 0.00 in /  0 mm
19:33 62.3 °F /  16.8 °C 56.4 °F /  13.6 °C 29.75 in /  1007.3 hPa ENE 0.6 mph /  1 km/h 1.2 mph /  1.9 km/h 81 % 0.00 in /  0 mm
19:38 62.0 °F /  16.7 °C 56.4 °F /  13.6 °C 29.75 in /  1007.3 hPa ESE 0.6 mph /  1 km/h 1.2 mph /  1.9 km/h 82 % 0.00 in /  0 mm
19:43 61.8 °F /  16.6 °C 56.2 °F /  13.4 °C 29.75 in /  1007.3 hPa NE 0.2 mph /  0.3 km/h 1.2 mph /  1.9 km/h 82 % 0.00 in /  0 mm
19:48 61.4 °F /  16.3 °C 56.2 °F /  13.4 °C 29.75 in /  1007.3 hPa ENE 1.3 mph /  2.1 km/h 3.5 mph /  5.6 km/h 83 % 0.00 in /  0 mm
19:53 61.1 °F /  16.2 °C 55.9 °F /  13.3 °C 29.76 in /  1007.7 hPa ENE 0.6 mph /  1 km/h 1.2 mph /  1.9 km/h 83 % 0.00 in /  0 mm
19:58 60.9 °F /  16.1 °C 56.0 °F /  13.3 °C 29.77 in /  1008 hPa ENE 0.1 mph /  0.2 km/h 1.2 mph /  1.9 km/h 84 % 0.00 in /  0 mm
20:03 60.8 °F /  16 °C 55.9 °F /  13.3 °C 29.77 in /  1008 hPa Calm   1.0 mph /  1.6 km/h 84 % 0.00 in /  0 mm
20:08 60.6 °F /  15.9 °C 55.7 °F /  13.2 °C 29.77 in /  1008 hPa ENE 0.3 mph /  0.5 km/h 1.2 mph /  1.9 km/h 84 % 0.00 in /  0 mm
20:13 60.3 °F /  15.7 °C 55.8 °F /  13.2 °C 29.76 in /  1007.7 hPa ENE 0.1 mph /  0.2 km/h 1.0 mph /  1.6 km/h 85 % 0.00 in /  0 mm
20:18 60.2 °F /  15.7 °C 55.3 °F /  12.9 °C 29.77 in /  1008 hPa ESE 1.4 mph /  2.3 km/h 2.3 mph /  3.7 km/h 84 % 0.00 in /  0 mm
20:23 60.1 °F /  15.6 °C 55.2 °F /  12.9 °C 29.77 in /  1008 hPa Calm   1.2 mph /  1.9 km/h 84 % 0.00 in /  0 mm
20:29 60.0 °F /  15.6 °C 55.5 °F /  13.1 °C 29.78 in /  1008.4 hPa Calm     85 % 0.00 in /  0 mm
20:34 59.8 °F /  15.4 °C 55.3 °F /  12.9 °C 29.78 in /  1008.4 hPa Calm     85 % 0.00 in /  0 mm
20:39 59.7 °F /  15.4 °C 55.2 °F /  12.9 °C 29.78 in /  1008.4 hPa Calm     85 % 0.00 in /  0 mm
20:44 59.6 °F /  15.3 °C 55.1 °F /  12.8 °C 29.78 in /  1008.4 hPa Calm     85 % 0.00 in /  0 mm
20:49 59.6 °F /  15.3 °C 55.1 °F /  12.8 °C 29.78 in /  1008.4 hPa SE 0.5 mph /  0.8 km/h 2.3 mph /  3.7 km/h 85 % 0.00 in /  0 mm
20:54 59.5 °F /  15.3 °C 55.3 °F /  12.9 °C 29.79 in /  1008.7 hPa SE 1.0 mph /  1.6 km/h 3.5 mph /  5.6 km/h 86 % 0.00 in /  0 mm
20:59 59.3 °F /  15.2 °C 54.8 °F /  12.7 °C 29.79 in /  1008.7 hPa SE 2.9 mph /  4.7 km/h 3.5 mph /  5.6 km/h 85 % 0.00 in /  0 mm
21:04 59.2 °F /  15.1 °C 54.4 °F /  12.4 °C 29.79 in /  1008.7 hPa SE 1.0 mph /  1.6 km/h 3.5 mph /  5.6 km/h 84 % 0.00 in /  0 mm
21:09 59.2 °F /  15.1 °C 53.7 °F /  12.1 °C 29.80 in /  1009 hPa SE 2.2 mph /  3.5 km/h 4.6 mph /  7.4 km/h 82 % 0.00 in /  0 mm
21:14 59.2 °F /  15.1 °C 53.7 °F /  12.1 °C 29.80 in /  1009 hPa SE 0.8 mph /  1.3 km/h 3.5 mph /  5.6 km/h 82 % 0.00 in /  0 mm
21:19 59.1 °F /  15.1 °C 53.6 °F /  12 °C 29.79 in /  1008.7 hPa Calm     82 % 0.00 in /  0 mm
21:24 59.1 °F /  15.1 °C 53.6 °F /  12 °C 29.80 in /  1009 hPa Calm   3.5 mph /  5.6 km/h 82 % 0.00 in /  0 mm
21:29 59.0 °F /  15 °C 53.2 °F /  11.8 °C 29.79 in /  1008.7 hPa SE 0.2 mph /  0.3 km/h 1.2 mph /  1.9 km/h 81 % 0.00 in /  0 mm
21:34 58.9 °F /  14.9 °C 53.1 °F /  11.7 °C 29.79 in /  1008.7 hPa SE 1.8 mph /  2.9 km/h 3.5 mph /  5.6 km/h 81 % 0.00 in /  0 mm
21:39 58.9 °F /  14.9 °C 52.7 °F /  11.5 °C 29.79 in /  1008.7 hPa Calm   1.2 mph /  1.9 km/h 80 % 0.00 in /  0 mm
21:44 58.9 °F /  14.9 °C 52.7 °F /  11.5 °C 29.79 in /  1008.7 hPa Calm     80 % 0.00 in /  0 mm
21:49 58.9 °F /  14.9 °C 52.7 °F /  11.5 °C 29.79 in /  1008.7 hPa SE 0.3 mph /  0.5 km/h 2.0 mph /  3.2 km/h 80 % 0.00 in /  0 mm
21:54 58.8 °F /  14.9 °C 52.6 °F /  11.4 °C 29.78 in /  1008.4 hPa Calm     80 % 0.00 in /  0 mm
21:59 58.7 °F /  14.8 °C 52.5 °F /  11.4 °C 29.78 in /  1008.4 hPa Calm     80 % 0.00 in /  0 mm
22:04 58.7 °F /  14.8 °C 52.5 °F /  11.4 °C 29.78 in /  1008.4 hPa Calm     80 % 0.00 in /  0 mm
22:09 58.6 °F /  14.8 °C 52.4 °F /  11.3 °C 29.79 in /  1008.7 hPa Calm     80 % 0.00 in /  0 mm
22:14 58.5 °F /  14.7 °C 52.7 °F /  11.5 °C 29.79 in /  1008.7 hPa SE 0.2 mph /  0.3 km/h 1.0 mph /  1.6 km/h 81 % 0.00 in /  0 mm
22:19 58.4 °F /  14.7 °C 52.6 °F /  11.4 °C 29.79 in /  1008.7 hPa Calm     81 % 0.00 in /  0 mm
22:24 58.3 °F /  14.6 °C 52.5 °F /  11.4 °C 29.79 in /  1008.7 hPa Calm   1.2 mph /  1.9 km/h 81 % 0.00 in /  0 mm
22:29 58.2 °F /  14.6 °C 52.4 °F /  11.3 °C 29.79 in /  1008.7 hPa Calm     81 % 0.00 in /  0 mm
22:34 58.1 °F /  14.5 °C 52.3 °F /  11.3 °C 29.80 in /  1009 hPa Calm     81 % 0.00 in /  0 mm
22:39 58.1 °F /  14.5 °C 52.6 °F /  11.4 °C 29.80 in /  1009 hPa Calm     82 % 0.00 in /  0 mm
22:44 57.9 °F /  14.4 °C 52.4 °F /  11.3 °C 29.80 in /  1009 hPa Calm     82 % 0.00 in /  0 mm
22:50 57.8 °F /  14.3 °C 52.3 °F /  11.3 °C 29.79 in /  1008.7 hPa Calm   2.3 mph /  3.7 km/h 82 % 0.00 in /  0 mm
22:55 57.8 °F /  14.3 °C 52.3 °F /  11.3 °C 29.80 in /  1009 hPa SE 0.9 mph /  1.4 km/h 2.3 mph /  3.7 km/h 82 % 0.00 in /  0 mm
22:57 57.7 °F /  14.3 °C 52.2 °F /  11.2 °C 29.80 in /  1009 hPa Calm     82 % 0.00 in /  0 mm
23:02 57.7 °F /  14.3 °C 52.2 °F /  11.2 °C 29.80 in /  1009 hPa Calm     82 % 0.00 in /  0 mm
23:07 57.6 °F /  14.2 °C 52.1 °F /  11.2 °C 29.80 in /  1009 hPa SE 0.2 mph /  0.3 km/h 1.0 mph /  1.6 km/h 82 % 0.00 in /  0 mm
23:17 57.5 °F /  14.2 °C 52.7 °F /  11.5 °C 29.79 in /  1008.7 hPa SE 1.4 mph /  2.3 km/h 2.3 mph /  3.7 km/h 84 % 0.00 in /  0 mm
23:22 57.5 °F /  14.2 °C 52.7 °F /  11.5 °C 29.79 in /  1008.7 hPa ESE 1.1 mph /  1.8 km/h 2.3 mph /  3.7 km/h 84 % 0.00 in /  0 mm
23:27 57.5 °F /  14.2 °C 52.7 °F /  11.5 °C 29.79 in /  1008.7 hPa ESE 0.7 mph /  1.1 km/h 2.3 mph /  3.7 km/h 84 % 0.00 in /  0 mm
23:32 57.5 °F /  14.2 °C 53.0 °F /  11.7 °C 29.79 in /  1008.7 hPa ESE 1.0 mph /  1.6 km/h 2.3 mph /  3.7 km/h 85 % 0.00 in /  0 mm
23:37 57.5 °F /  14.2 °C 52.7 °F /  11.5 °C 29.79 in /  1008.7 hPa ESE 0.5 mph /  0.8 km/h 2.3 mph /  3.7 km/h 84 % 0.00 in /  0 mm
23:42 57.5 °F /  14.2 °C 53.0 °F /  11.7 °C 29.79 in /  1008.7 hPa ESE 0.1 mph /  0.2 km/h 1.2 mph /  1.9 km/h 85 % 0.00 in /  0 mm
23:47 57.5 °F /  14.2 °C 53.0 °F /  11.7 °C 29.79 in /  1008.7 hPa ESE 0.8 mph /  1.3 km/h 1.2 mph /  1.9 km/h 85 % 0.00 in /  0 mm
23:53 57.5 °F /  14.2 °C 53.0 °F /  11.7 °C 29.80 in /  1009 hPa East 0.5 mph /  0.8 km/h 3.5 mph /  5.6 km/h 85 % 0.00 in /  0 mm
23:58 57.5 °F /  14.2 °C 53.0 °F /  11.7 °C 29.79 in /  1008.7 hPa ESE 0.3 mph /  0.5 km/h 3.5 mph /  5.6 km/h 85 % 0.00 in /  0 mm
Crab Meadow Weather
Compliments of Weather Underground - 3 mb

Script developed by  Jim McMurry - jmcmurry@mwt.net Adapted for the template by  Wim van der Kuil - Leuven-Template.eu

Lightning: The chances of being hit by lightning is 1:28,500.